createdAt,value
2018-03-19T00:01:43.787Z,-2.90
2018-03-19T00:04:13.749Z,-2.80
2018-03-19T00:06:41.685Z,-2.90
2018-03-19T00:09:10.371Z,-2.70
2018-03-19T00:11:38.205Z,-2.80
2018-03-19T00:14:05.965Z,-2.70
2018-03-19T00:16:34.647Z,-2.70
2018-03-19T00:19:02.806Z,-2.70
2018-03-19T00:21:31.857Z,-2.60
2018-03-19T00:23:59.986Z,-2.60
2018-03-19T00:26:28.886Z,-2.60
2018-03-19T00:28:56.925Z,-2.60
2018-03-19T00:31:25.085Z,-2.60
2018-03-19T00:33:53.688Z,-2.60
2018-03-19T00:36:21.728Z,-2.70
2018-03-19T00:38:50.947Z,-2.60
2018-03-19T00:41:18.967Z,-2.60
2018-03-19T00:43:47.165Z,-2.50
2018-03-19T00:46:15.096Z,-2.50
2018-03-19T00:48:42.985Z,-2.60
2018-03-19T00:51:10.866Z,-2.50
2018-03-19T00:53:38.845Z,-2.50
2018-03-19T00:56:07.798Z,-2.60
2018-03-19T00:58:35.564Z,-2.60
2018-03-19T01:01:03.648Z,-2.60
2018-03-19T01:03:31.388Z,-2.70
2018-03-19T01:05:59.509Z,-2.80
2018-03-19T01:08:27.447Z,-2.80
2018-03-19T01:10:55.989Z,-3.00
2018-03-19T01:13:23.889Z,-3.00
2018-03-19T01:15:51.971Z,-3.00
2018-03-19T01:18:19.829Z,-3.00
2018-03-19T01:20:47.749Z,-3.10
2018-03-19T01:23:15.808Z,-3.10
2018-03-19T01:25:43.948Z,-3.10
2018-03-19T01:28:12.073Z,-3.20
2018-03-19T01:30:40.127Z,-3.20
2018-03-19T01:33:08.116Z,-3.20
2018-03-19T01:35:36.048Z,-3.20
2018-03-19T01:38:03.905Z,-3.20
2018-03-19T01:40:31.925Z,-3.20
2018-03-19T01:42:59.885Z,-3.20
2018-03-19T01:45:27.266Z,-3.10
2018-03-19T01:47:55.265Z,-3.10
2018-03-19T01:50:23.145Z,-3.20
2018-03-19T01:52:51.084Z,-3.30
2018-03-19T01:55:18.985Z,-3.30
2018-03-19T01:57:49.729Z,-3.30
2018-03-19T02:00:17.376Z,-3.30
2018-03-19T02:02:46.145Z,-3.20
2018-03-19T02:05:14.086Z,-3.20
2018-03-19T02:07:41.968Z,-3.20
2018-03-19T02:10:10.146Z,-3.20
2018-03-19T02:12:38.446Z,-3.20
2018-03-19T02:15:06.310Z,-3.10
2018-03-19T02:17:34.386Z,-3.20
2018-03-19T02:20:02.966Z,-3.20
2018-03-19T02:22:33.473Z,-3.20
2018-03-19T02:25:01.446Z,-3.20
2018-03-19T02:27:30.247Z,-3.20
2018-03-19T02:29:58.045Z,-3.20
2018-03-19T02:32:26.266Z,-3.20
2018-03-19T02:34:55.245Z,-3.10
2018-03-19T02:37:22.685Z,-3.10
2018-03-19T02:39:50.544Z,-3.10
2018-03-19T02:42:18.725Z,-3.10
2018-03-19T02:44:46.586Z,-3.10
2018-03-19T02:47:14.500Z,-3.10
2018-03-19T02:49:42.326Z,-3.10
2018-03-19T02:52:09.766Z,-3.10
2018-03-19T02:54:37.147Z,-3.00
2018-03-19T02:57:04.826Z,-3.00
2018-03-19T02:59:32.148Z,-3.00
2018-03-19T03:02:00.726Z,-3.00
2018-03-19T03:04:28.686Z,-3.00
2018-03-19T03:06:56.427Z,-2.90
2018-03-19T03:09:24.606Z,-3.00
2018-03-19T03:11:52.026Z,-2.90
2018-03-19T03:14:19.666Z,-3.00
2018-03-19T03:16:47.326Z,-3.10
2018-03-19T03:19:15.287Z,-3.10
2018-03-19T03:21:42.586Z,-3.10
2018-03-19T03:24:09.946Z,-3.10
2018-03-19T03:26:38.048Z,-3.20
2018-03-19T03:29:06.625Z,-3.10
2018-03-19T03:31:34.527Z,-3.20
2018-03-19T03:34:01.885Z,-3.10
2018-03-19T03:39:12.728Z,-3.00
2018-03-19T03:41:40.127Z,-2.90
2018-03-19T03:44:07.567Z,-2.90
2018-03-19T03:46:34.991Z,-2.90
2018-03-19T03:49:03.046Z,-2.90
2018-03-19T03:51:30.446Z,-2.90
2018-03-19T03:53:58.206Z,-2.90
2018-03-19T03:56:26.946Z,-2.80
2018-03-19T03:58:54.685Z,-2.80
2018-03-19T04:01:22.405Z,-2.80
2018-03-19T04:03:50.045Z,-2.70
2018-03-19T04:06:17.466Z,-2.70
2018-03-19T04:08:44.753Z,-2.70
2018-03-19T04:11:12.286Z,-2.60
2018-03-19T04:13:39.665Z,-2.60
2018-03-19T04:16:07.006Z,-2.60
2018-03-19T04:18:34.725Z,-2.60
2018-03-19T04:21:03.326Z,-2.60
2018-03-19T04:23:30.725Z,-2.60
2018-03-19T04:25:58.066Z,-2.60
2018-03-19T04:28:25.605Z,-2.70
2018-03-19T04:30:53.735Z,-2.70
2018-03-19T04:33:21.583Z,-2.70
2018-03-19T04:35:49.026Z,-2.70
2018-03-19T04:38:16.326Z,-2.70
2018-03-19T04:40:44.806Z,-2.70
2018-03-19T04:43:12.926Z,-2.80
2018-03-19T04:45:40.765Z,-3.00
2018-03-19T04:48:08.188Z,-3.00
2018-03-19T04:50:38.349Z,-3.10
2018-03-19T04:53:06.524Z,-3.20
2018-03-19T04:55:34.027Z,-3.20
2018-03-19T04:58:01.505Z,-3.20
2018-03-19T05:00:29.513Z,-3.20
2018-03-19T05:02:57.745Z,-3.30
2018-03-19T05:05:25.605Z,-3.30
2018-03-19T05:07:53.885Z,-3.40
2018-03-19T05:10:21.823Z,-3.40
2018-03-19T05:12:49.685Z,-3.40
2018-03-19T05:15:17.734Z,-3.50
2018-03-19T05:17:45.873Z,-3.40
2018-03-19T05:20:14.487Z,-3.40
2018-03-19T05:22:42.404Z,-3.40
2018-03-19T05:25:10.285Z,-3.40
2018-03-19T05:27:38.253Z,-3.50
2018-03-19T05:30:06.386Z,-3.40
2018-03-19T05:32:34.307Z,-3.40
2018-03-19T05:35:02.645Z,-3.30
2018-03-19T05:37:30.866Z,-3.30
2018-03-19T05:39:58.687Z,-3.20
2018-03-19T05:42:26.465Z,-3.10
2018-03-19T05:44:54.646Z,-3.00
2018-03-19T05:47:22.604Z,-2.90
2018-03-19T05:49:51.105Z,-2.90
2018-03-19T05:52:19.765Z,-2.90
2018-03-19T05:54:47.638Z,-2.90
2018-03-19T05:57:15.805Z,-2.90
2018-03-19T05:59:43.605Z,-2.90
2018-03-19T06:02:11.329Z,-3.00
2018-03-19T06:04:39.289Z,-3.00
2018-03-19T06:07:07.449Z,-3.00
2018-03-19T06:09:35.689Z,-3.10
2018-03-19T06:12:03.869Z,-3.00
2018-03-19T06:14:31.638Z,-3.00
2018-03-19T06:16:59.489Z,-2.90
2018-03-19T06:19:27.249Z,-2.90
2018-03-19T06:21:55.290Z,-2.90
2018-03-19T06:24:23.066Z,-2.90
2018-03-19T06:26:51.048Z,-2.90
2018-03-19T06:29:18.804Z,-2.80
2018-03-19T06:31:51.202Z,-2.70
2018-03-19T06:34:23.889Z,-2.60
2018-03-19T06:36:55.620Z,-2.50
2018-03-19T06:39:24.722Z,-2.40
2018-03-19T06:41:52.386Z,-2.40
2018-03-19T06:44:21.865Z,-2.40
2018-03-19T06:46:49.996Z,-2.40
2018-03-19T06:49:18.174Z,-2.30
2018-03-19T06:51:45.456Z,-2.40
2018-03-19T06:54:13.543Z,-2.30
2018-03-19T06:56:41.580Z,-2.30
2018-03-19T06:59:11.709Z,-2.50
2018-03-19T07:01:41.631Z,-2.50
2018-03-19T07:04:10.524Z,-2.50
2018-03-19T07:06:39.708Z,-2.40
2018-03-19T07:09:07.108Z,-2.30
2018-03-19T07:11:34.658Z,-2.30
2018-03-19T07:14:02.210Z,-2.20
2018-03-19T07:16:31.028Z,-2.30
2018-03-19T07:18:58.289Z,-2.30
2018-03-19T07:21:25.745Z,-2.40
2018-03-19T07:23:53.246Z,-2.40
2018-03-19T07:26:21.726Z,-2.40
2018-03-19T07:28:49.887Z,-2.50
2018-03-19T07:31:18.446Z,-2.50
2018-03-19T07:33:46.293Z,-2.50
2018-03-19T07:36:14.371Z,-2.50
2018-03-19T07:38:42.412Z,-2.50
2018-03-19T07:41:10.306Z,-2.40
2018-03-19T07:43:38.526Z,-2.40
2018-03-19T07:46:06.567Z,-2.40
2018-03-19T07:48:34.759Z,-2.30
2018-03-19T07:51:02.826Z,-2.20
2018-03-19T07:53:30.848Z,-2.10
2018-03-19T07:55:59.388Z,-1.80
2018-03-19T07:58:27.287Z,-1.80
2018-03-19T08:00:55.068Z,-1.70
2018-03-19T08:03:22.954Z,-1.70
2018-03-19T08:05:52.250Z,-1.70
2018-03-19T08:08:20.069Z,-1.70
2018-03-19T08:10:48.006Z,-1.70
2018-03-19T08:13:15.392Z,-1.60
2018-03-19T08:15:42.727Z,-1.50
2018-03-19T08:18:10.530Z,-1.40
2018-03-19T08:20:38.028Z,-1.40
2018-03-19T08:23:06.573Z,-1.40
2018-03-19T08:25:35.110Z,-1.20
2018-03-19T08:28:03.169Z,-1.20
2018-03-19T08:30:32.021Z,-1.20
2018-03-19T08:32:59.488Z,-1.20
2018-03-19T08:35:26.929Z,-1.30
2018-03-19T08:37:54.349Z,-1.30
2018-03-19T08:40:22.037Z,-1.40
2018-03-19T08:42:49.571Z,-1.40
2018-03-19T08:45:17.328Z,-1.40
2018-03-19T08:47:45.629Z,-1.30
2018-03-19T08:50:13.297Z,-1.30
2018-03-19T08:52:40.617Z,-1.20
2018-03-19T08:55:08.148Z,-1.10
2018-03-19T08:57:35.768Z,-1.10
2018-03-19T09:00:03.811Z,-1.10
2018-03-19T09:02:31.996Z,-1.10
2018-03-19T09:04:59.575Z,-1.10
2018-03-19T09:07:27.783Z,-1.10
2018-03-19T09:09:55.115Z,-1.10
2018-03-19T09:12:22.352Z,-1.00
2018-03-19T09:14:49.631Z,-0.90
2018-03-19T09:17:17.732Z,-0.60
2018-03-19T09:19:45.003Z,-0.60
2018-03-19T09:22:12.813Z,-0.60
2018-03-19T09:24:42.787Z,-0.60
2018-03-19T09:27:11.291Z,-0.50
2018-03-19T09:29:39.106Z,-0.50
2018-03-19T09:32:06.946Z,-0.60
2018-03-19T09:34:34.208Z,-0.50
2018-03-19T09:37:02.009Z,-0.40
2018-03-19T09:39:29.685Z,-0.30
2018-03-19T09:41:57.006Z,-0.20
2018-03-19T09:44:25.074Z,-0.20
2018-03-19T09:46:52.406Z,-0.20
2018-03-19T09:49:20.561Z,-0.30
2018-03-19T09:51:47.958Z,-0.30
2018-03-19T09:54:15.225Z,-0.30
2018-03-19T09:56:42.986Z,-0.40
2018-03-19T09:59:11.636Z,-0.70
2018-03-19T10:01:39.366Z,-0.70
2018-03-19T10:04:07.067Z,-0.60
2018-03-19T10:06:34.866Z,-0.70
2018-03-19T10:11:34.410Z,-0.80
2018-03-19T10:14:02.217Z,-0.80
2018-03-19T10:16:29.946Z,-0.90
2018-03-19T10:18:57.658Z,-0.90
2018-03-19T10:21:25.488Z,-1.00
2018-03-19T10:23:53.228Z,-1.00
2018-03-19T10:26:20.552Z,-0.90
2018-03-19T10:28:47.900Z,-1.00
2018-03-19T10:31:15.150Z,-1.00
2018-03-19T10:33:42.570Z,-0.90
2018-03-19T10:36:09.892Z,-0.90
2018-03-19T10:38:37.233Z,-0.90
2018-03-19T10:41:04.546Z,-1.00
2018-03-19T10:43:31.767Z,-1.00
2018-03-19T10:45:59.851Z,-0.80
2018-03-19T10:48:27.155Z,-0.80
2018-03-19T10:50:54.440Z,-0.80
2018-03-19T10:53:22.491Z,-0.70
2018-03-19T10:55:50.489Z,-0.60
2018-03-19T10:58:17.893Z,-0.60
2018-03-19T11:00:45.591Z,-0.50
2018-03-19T11:03:18.512Z,-0.50
2018-03-19T11:06:05.551Z,-0.50
2018-03-19T11:08:34.670Z,-0.50
2018-03-19T11:11:02.183Z,-0.50
2018-03-19T11:13:30.012Z,-0.50
2018-03-19T11:15:57.628Z,-0.60
2018-03-19T11:18:24.951Z,-0.60
2018-03-19T11:20:52.850Z,-0.80
2018-03-19T11:23:20.271Z,-0.90
2018-03-19T11:25:48.070Z,-1.00
2018-03-19T11:28:15.711Z,-1.00
2018-03-19T11:30:44.432Z,-0.90
2018-03-19T11:33:11.868Z,-0.90
2018-03-19T11:35:40.390Z,-0.70
2018-03-19T11:38:07.969Z,-0.70
2018-03-19T11:40:35.368Z,-0.80
2018-03-19T11:43:03.871Z,-0.80
2018-03-19T11:45:31.648Z,-0.70
2018-03-19T11:47:59.949Z,-0.60
2018-03-19T11:50:27.732Z,-0.50
2018-03-19T11:52:56.386Z,-0.50
2018-03-19T11:55:24.213Z,-0.50
2018-03-19T11:57:52.267Z,-0.50
2018-03-19T12:00:22.341Z,-0.50
2018-03-19T12:02:50.569Z,-0.60
2018-03-19T12:05:18.691Z,-0.70
2018-03-19T12:07:46.529Z,-0.80
2018-03-19T12:10:14.369Z,-0.90
2018-03-19T12:12:42.324Z,-1.00
2018-03-19T12:15:10.309Z,-1.00
2018-03-19T12:17:38.268Z,-1.00
2018-03-19T12:20:06.109Z,-1.00
2018-03-19T12:22:33.888Z,-1.00
2018-03-19T12:25:05.532Z,-1.10
2018-03-19T12:27:33.927Z,-1.20
2018-03-19T12:30:01.753Z,-1.20
2018-03-19T12:32:29.746Z,-1.20
2018-03-19T12:34:58.267Z,-1.10
2018-03-19T12:37:26.426Z,-1.20
2018-03-19T12:39:54.069Z,-1.20
2018-03-19T12:42:21.754Z,-1.20
2018-03-19T12:44:49.187Z,-1.20
2018-03-19T12:47:16.786Z,-1.20
2018-03-19T12:49:44.726Z,-1.20
2018-03-19T12:52:12.295Z,-1.20
2018-03-19T12:54:39.996Z,-1.10
2018-03-19T12:57:07.449Z,-1.10
2018-03-19T12:59:36.392Z,-1.10
2018-03-19T13:02:04.794Z,-1.20
2018-03-19T13:04:33.333Z,-1.20
2018-03-19T13:07:01.346Z,-1.20
2018-03-19T13:09:29.066Z,-1.20
2018-03-19T13:11:56.528Z,-1.40
2018-03-19T13:14:23.888Z,-1.30
2018-03-19T13:16:52.016Z,-1.20
2018-03-19T13:19:19.286Z,-1.10
2018-03-19T13:21:46.685Z,-1.00
2018-03-19T13:24:14.705Z,-1.00
2018-03-19T13:26:42.846Z,-1.10
2018-03-19T13:29:11.173Z,-1.10
2018-03-19T13:31:38.732Z,-1.20
2018-03-19T13:34:06.106Z,-1.20
2018-03-19T13:36:33.445Z,-1.20
2018-03-19T13:39:00.931Z,-1.20
2018-03-19T13:41:29.587Z,-1.10
2018-03-19T13:43:56.946Z,-1.10
2018-03-19T13:46:24.497Z,-1.00
2018-03-19T13:48:51.806Z,-1.00
2018-03-19T13:51:21.268Z,-0.90
2018-03-19T13:53:48.768Z,-0.90
2018-03-19T13:56:16.086Z,-0.90
2018-03-19T13:58:44.226Z,-1.00
2018-03-19T14:01:11.968Z,-1.10
2018-03-19T14:03:39.926Z,-1.30
2018-03-19T14:06:07.846Z,-1.50
2018-03-19T14:08:35.572Z,-1.50
2018-03-19T14:11:03.334Z,-1.50
2018-03-19T14:13:30.668Z,-1.50
2018-03-19T14:15:58.087Z,-1.50
2018-03-19T14:18:25.386Z,-1.50
2018-03-19T14:20:53.587Z,-1.40
2018-03-19T14:23:20.950Z,-1.40
2018-03-19T14:25:48.364Z,-1.40
2018-03-19T14:28:15.967Z,-1.40
2018-03-19T14:30:44.326Z,-1.40
2018-03-19T14:33:11.906Z,-1.40
2018-03-19T14:35:39.486Z,-1.30
2018-03-19T14:38:07.607Z,-1.30
2018-03-19T14:40:35.087Z,-1.30
2018-03-19T14:43:02.395Z,-1.30
2018-03-19T14:45:29.847Z,-1.30
2018-03-19T14:47:58.331Z,-1.40
2018-03-19T14:50:26.723Z,-1.40
2018-03-19T14:52:55.290Z,-1.40
2018-03-19T14:55:23.029Z,-1.50
2018-03-19T14:57:50.369Z,-1.40
2018-03-19T15:00:18.233Z,-1.40
2018-03-19T15:02:55.042Z,-1.40
2018-03-19T15:05:23.048Z,-1.40
2018-03-19T15:07:50.372Z,-1.30
2018-03-19T15:10:17.871Z,-1.30
2018-03-19T15:12:45.297Z,-1.20
2018-03-19T15:15:12.931Z,-1.20
2018-03-19T15:17:41.247Z,-1.20
2018-03-19T15:20:08.747Z,-1.30
2018-03-19T15:22:36.326Z,-1.20
2018-03-19T15:25:03.644Z,-1.20
2018-03-19T15:27:31.168Z,-1.20
2018-03-19T15:29:58.672Z,-1.10
2018-03-19T15:32:26.167Z,-1.10
2018-03-19T15:34:54.987Z,-1.10
2018-03-19T15:37:22.315Z,-1.10
2018-03-19T15:39:49.767Z,-1.20
2018-03-19T15:42:19.846Z,-1.30
2018-03-19T15:44:47.668Z,-1.30
2018-03-19T15:47:15.067Z,-1.40
2018-03-19T15:49:44.122Z,-1.40
2018-03-19T15:52:11.633Z,-1.40
2018-03-19T15:54:39.354Z,-1.40
2018-03-19T15:57:06.786Z,-1.50
2018-03-19T15:59:34.924Z,-1.50
2018-03-19T16:02:02.536Z,-1.50
2018-03-19T16:04:30.671Z,-1.50
2018-03-19T16:06:58.008Z,-1.50
2018-03-19T16:09:26.136Z,-1.60
2018-03-19T16:11:54.067Z,-1.60
2018-03-19T16:14:21.470Z,-1.60
2018-03-19T16:16:48.948Z,-1.60
2018-03-19T16:19:17.355Z,-1.70
2018-03-19T16:21:44.866Z,-1.70
2018-03-19T16:24:12.129Z,-1.60
2018-03-19T16:26:40.386Z,-1.60
2018-03-19T16:29:07.885Z,-1.60
2018-03-19T16:31:35.326Z,-1.60
2018-03-19T16:34:03.586Z,-1.50
2018-03-19T16:36:31.028Z,-1.60
2018-03-19T16:38:58.699Z,-1.50
2018-03-19T16:41:26.191Z,-1.50
2018-03-19T16:43:54.306Z,-1.50
2018-03-19T16:46:21.887Z,-1.50
2018-03-19T16:48:50.627Z,-1.40
2018-03-19T16:51:18.168Z,-1.40
2018-03-19T16:53:45.461Z,-1.40
2018-03-19T16:56:13.848Z,-1.50
2018-03-19T16:58:42.348Z,-1.50
2018-03-19T17:01:10.596Z,-1.50
2018-03-19T17:03:38.916Z,-1.50
2018-03-19T17:06:06.467Z,-1.50
2018-03-19T17:08:33.907Z,-1.50
2018-03-19T17:11:01.606Z,-1.60
2018-03-19T17:13:29.384Z,-1.60
2018-03-19T17:15:57.834Z,-1.70
2018-03-19T17:18:26.087Z,-1.70
2018-03-19T17:20:54.047Z,-1.80
2018-03-19T17:23:22.033Z,-1.90
2018-03-19T17:25:50.170Z,-2.00
2018-03-19T17:28:18.092Z,-2.10
2018-03-19T17:30:45.980Z,-2.20
2018-03-19T17:33:14.006Z,-2.20
2018-03-19T17:35:42.027Z,-2.20
2018-03-19T17:38:09.837Z,-2.20
2018-03-19T17:40:37.831Z,-2.30
2018-03-19T17:43:05.888Z,-2.40
2018-03-19T17:45:35.088Z,-2.40
2018-03-19T17:48:03.807Z,-2.40
2018-03-19T17:50:32.607Z,-2.40
2018-03-19T17:53:00.647Z,-2.40
2018-03-19T17:55:28.926Z,-2.30
2018-03-19T17:57:57.727Z,-2.30
2018-03-19T18:00:26.033Z,-2.30
2018-03-19T18:02:53.926Z,-2.20
2018-03-19T18:05:21.687Z,-2.20
2018-03-19T18:07:49.588Z,-2.30
2018-03-19T18:10:17.576Z,-2.30
2018-03-19T18:12:45.506Z,-2.30
2018-03-19T18:15:13.808Z,-2.30
2018-03-19T18:17:42.469Z,-2.40
2018-03-19T18:20:10.606Z,-2.40
2018-03-19T18:22:38.687Z,-2.40
2018-03-19T18:25:06.553Z,-2.50
2018-03-19T18:27:34.688Z,-2.50
2018-03-19T18:30:03.272Z,-2.60
2018-03-19T18:32:31.147Z,-2.60
2018-03-19T18:34:59.367Z,-2.60
2018-03-19T18:37:27.365Z,-2.60
2018-03-19T18:39:55.243Z,-2.60
2018-03-19T18:42:23.231Z,-2.60
2018-03-19T18:44:51.827Z,-2.60
2018-03-19T18:47:23.602Z,-2.70
2018-03-19T18:49:51.989Z,-2.70
2018-03-19T18:52:20.122Z,-2.70
2018-03-19T18:54:48.026Z,-2.70
2018-03-19T18:57:16.026Z,-2.70
2018-03-19T18:59:44.468Z,-2.70
2018-03-19T19:02:12.728Z,-2.70
2018-03-19T19:04:41.187Z,-2.80
2018-03-19T19:07:10.706Z,-2.80
2018-03-19T19:09:39.288Z,-2.80
2018-03-19T19:12:07.646Z,-2.70
2018-03-19T19:14:35.488Z,-2.70
2018-03-19T19:17:03.969Z,-2.70
2018-03-19T19:19:33.107Z,-2.70
2018-03-19T19:22:01.273Z,-2.70
2018-03-19T19:24:29.727Z,-2.70
2018-03-19T19:26:59.175Z,-2.80
2018-03-19T19:29:27.918Z,-2.70
2018-03-19T19:31:56.868Z,-2.80
2018-03-19T19:34:25.876Z,-2.80
2018-03-19T19:36:54.728Z,-2.80
2018-03-19T19:39:22.605Z,-2.80
2018-03-19T19:41:51.667Z,-2.80
2018-03-19T19:44:20.207Z,-2.80
2018-03-19T19:46:48.827Z,-2.80
2018-03-19T19:49:17.107Z,-2.80
2018-03-19T19:51:46.186Z,-2.80
2018-03-19T19:54:14.046Z,-2.80
2018-03-19T19:56:42.828Z,-2.70
2018-03-19T19:59:11.019Z,-2.80
2018-03-19T20:01:38.947Z,-2.80
2018-03-19T20:04:07.048Z,-2.80
2018-03-19T20:06:34.928Z,-2.90
2018-03-19T20:09:03.086Z,-3.00
2018-03-19T20:11:31.932Z,-3.10
2018-03-19T20:14:00.630Z,-3.10
2018-03-19T20:16:28.929Z,-3.10
2018-03-19T20:18:58.569Z,-3.20
2018-03-19T20:21:27.328Z,-3.20
2018-03-19T20:23:55.206Z,-3.20
2018-03-19T20:26:23.067Z,-3.20
2018-03-19T20:28:51.228Z,-3.30
2018-03-19T20:31:19.067Z,-3.30
2018-03-19T20:33:46.911Z,-3.30
2018-03-19T20:36:14.850Z,-3.30
2018-03-19T20:38:43.072Z,-3.30
2018-03-19T20:41:11.034Z,-3.30
2018-03-19T20:43:39.247Z,-3.40
2018-03-19T20:46:07.173Z,-3.40
2018-03-19T20:48:35.486Z,-3.40
2018-03-19T20:51:03.431Z,-3.40
2018-03-19T20:53:31.275Z,-3.40
2018-03-19T20:55:59.227Z,-3.40
2018-03-19T20:58:27.462Z,-3.40
2018-03-19T21:00:55.526Z,-3.40
2018-03-19T21:03:23.286Z,-3.40
2018-03-19T21:05:51.327Z,-3.40
2018-03-19T21:08:19.268Z,-3.40
2018-03-19T21:10:47.726Z,-3.40
2018-03-19T21:13:16.436Z,-3.40
2018-03-19T21:15:47.052Z,-3.40
2018-03-19T21:18:15.267Z,-3.40
2018-03-19T21:20:43.439Z,-3.40
2018-03-19T21:23:11.647Z,-3.40
2018-03-19T21:25:39.807Z,-3.40
2018-03-19T21:28:07.806Z,-3.40
2018-03-19T21:30:35.946Z,-3.30
2018-03-19T21:33:03.928Z,-3.30
2018-03-19T21:35:32.526Z,-3.40
2018-03-19T21:38:00.387Z,-3.40
2018-03-19T21:40:28.536Z,-3.40
2018-03-19T21:42:57.287Z,-3.40
2018-03-19T21:45:25.107Z,-3.40
2018-03-19T21:47:53.026Z,-3.40
2018-03-19T21:50:20.989Z,-3.50
2018-03-19T21:52:49.062Z,-3.50
2018-03-19T21:55:17.206Z,-3.50
2018-03-19T21:57:45.246Z,-3.50
2018-03-19T22:00:18.514Z,-3.50
2018-03-19T22:02:46.767Z,-3.50
2018-03-19T22:05:15.288Z,-3.50
2018-03-19T22:07:43.246Z,-3.60
2018-03-19T22:10:11.427Z,-3.60
2018-03-19T22:12:39.507Z,-3.60
2018-03-19T22:15:08.127Z,-3.60
2018-03-19T22:17:36.286Z,-3.60
2018-03-19T22:20:04.986Z,-3.80
2018-03-19T22:22:32.886Z,-3.80
2018-03-19T22:25:01.566Z,-3.90
2018-03-19T22:27:29.647Z,-3.90
2018-03-19T22:29:57.948Z,-3.90
2018-03-19T22:32:27.609Z,-4.00
2018-03-19T22:34:55.446Z,-4.00
2018-03-19T22:37:23.365Z,-4.00
2018-03-19T22:39:51.616Z,-4.00
2018-03-19T22:42:19.063Z,-4.00
2018-03-19T22:44:47.965Z,-4.00
2018-03-19T22:47:15.355Z,-4.00
2018-03-19T22:49:43.228Z,-3.90
2018-03-19T22:52:11.586Z,-3.90
2018-03-19T22:54:39.206Z,-3.90
2018-03-19T22:57:06.986Z,-3.90
2018-03-19T22:59:35.047Z,-3.90
2018-03-19T23:02:06.012Z,-3.90
2018-03-19T23:04:39.586Z,-3.90
2018-03-19T23:07:07.705Z,-4.00
2018-03-19T23:09:35.445Z,-4.00
2018-03-19T23:12:03.905Z,-4.00
2018-03-19T23:14:31.546Z,-4.00
2018-03-19T23:16:59.185Z,-4.00
2018-03-19T23:19:26.845Z,-4.00
2018-03-19T23:21:54.205Z,-3.90
2018-03-19T23:24:21.925Z,-3.90
2018-03-19T23:26:49.307Z,-3.90
2018-03-19T23:29:17.487Z,-3.90
2018-03-19T23:31:45.227Z,-4.00
2018-03-19T23:34:13.405Z,-4.00
2018-03-19T23:36:41.546Z,-4.10
2018-03-19T23:39:09.205Z,-4.10
2018-03-19T23:41:37.545Z,-4.10
2018-03-19T23:44:05.105Z,-4.10
2018-03-19T23:46:32.765Z,-4.10
2018-03-19T23:49:00.445Z,-4.10
2018-03-19T23:51:27.886Z,-4.00
2018-03-19T23:53:56.107Z,-4.00
2018-03-19T23:56:23.567Z,-4.00
2018-03-19T23:58:51.187Z,-4.00
